Time;durP1;ratioP1;P1;durP2;ratioP2;P2;SDS_P1;SDS_P2;PMS_P1;PMS_P2;Temp;Humidity;BMP_temperature;BMP_pressure;BME280_temperature;BME280_humidity;BME280_pressure;Samples;Min_cycle;Max_cycle;Signal;HPM_P1;HPM_P2
2024/03/30 00:01:27;;;;;;;7.33;4.00;;;;;;;14.74;54.80;95670.19;5033824;28;20208;-70
2024/03/30 00:03:53;;;;;;;11.90;3.90;;;;;;;14.76;54.63;95657.56;5038819;28;20195;-71
2024/03/30 00:06:18;;;;;;;8.77;3.77;;;;;;;14.77;54.44;95653.91;5037894;28;20191;-71
2024/03/30 00:08:43;;;;;;;16.93;4.10;;;;;;;14.79;54.44;95664.25;5039339;28;20661;-72
2024/03/30 00:11:09;;;;;;;18.17;3.90;;;;;;;14.79;54.49;95656.34;5038253;28;20215;-70
2024/03/30 00:13:34;;;;;;;12.10;3.57;;;;;;;14.80;54.21;95658.75;5032557;28;20595;-71
2024/03/30 00:16:07;;;;;;;8.73;3.70;;;;;;;14.74;54.11;95659.66;5043821;28;20210;-71
2024/03/30 00:18:33;;;;;;;22.63;3.43;;;;;;;14.77;53.76;95664.47;5037053;28;20184;-72
2024/03/30 00:20:58;;;;;;;15.23;3.70;;;;;;;14.79;53.48;95659.78;5037796;28;20962;-70
2024/03/30 00:23:24;;;;;;;10.90;3.60;;;;;;;14.84;53.40;95659.94;5035662;28;20204;-69
2024/03/30 00:25:53;;;;;;;16.93;3.73;;;;;;;14.84;53.18;95659.13;5035434;28;20175;-72
2024/03/30 00:28:19;;;;;;;20.13;4.30;;;;;;;14.83;53.54;95657.50;5037184;28;20186;-71
2024/03/30 00:30:45;;;;;;;8.63;3.80;;;;;;;14.79;53.97;95659.00;5043448;28;20414;-71
2024/03/30 00:33:15;;;;;;;9.97;3.90;;;;;;;14.68;54.31;95655.22;5037799;28;20503;-70
2024/03/30 00:35:40;;;;;;;10.03;4.10;;;;;;;14.55;54.66;95656.13;5034757;28;20434;-71
2024/03/30 00:38:09;;;;;;;15.97;3.60;;;;;;;14.50;54.69;95648.84;5039056;28;20440;-70
2024/03/30 00:40:35;;;;;;;9.90;3.63;;;;;;;14.47;54.22;95649.28;5046033;28;20691;-71
2024/03/30 00:43:01;;;;;;;13.17;3.50;;;;;;;14.57;53.50;95640.88;5037892;28;20457;-68
2024/03/30 00:45:27;;;;;;;11.43;3.60;;;;;;;14.67;53.30;95653.56;5040219;28;20211;-69
2024/03/30 00:47:52;;;;;;;9.37;3.10;;;;;;;14.50;53.98;95643.56;5045959;28;20427;-72
2024/03/30 00:50:18;;;;;;;15.33;3.80;;;;;;;14.56;53.77;95650.63;5036378;28;20268;-70
2024/03/30 00:52:44;;;;;;;16.80;3.20;;;;;;;14.54;53.92;95644.75;5040835;28;20189;-71
2024/03/30 00:55:09;;;;;;;12.77;3.33;;;;;;;14.47;53.21;95644.00;5039813;28;20443;-71
2024/03/30 00:57:41;;;;;;;19.97;4.03;;;;;;;14.58;52.90;95634.59;5038399;28;20191;-72
2024/03/30 01:00:08;;;;;;;13.20;3.73;;;;;;;14.55;52.87;95643.72;5032639;28;20182;-70
2024/03/30 01:02:33;;;;;;;30.83;4.33;;;;;;;14.61;52.57;95649.19;5035383;28;20419;-70
2024/03/30 01:04:58;;;;;;;25.23;3.87;;;;;;;14.62;52.54;95654.22;5036529;28;20492;-71
2024/03/30 01:07:24;;;;;;;15.83;4.27;;;;;;;14.59;52.14;95650.19;5029233;28;20211;-70
2024/03/30 01:09:49;;;;;;;18.93;3.90;;;;;;;14.68;51.97;95645.47;5033990;28;20167;-71
2024/03/30 01:12:15;;;;;;;13.43;3.70;;;;;;;14.76;51.66;95647.03;5042246;28;20182;-70
2024/03/30 01:14:41;;;;;;;17.90;3.90;;;;;;;14.79;51.57;95646.59;5039150;28;20202;-69
2024/03/30 01:17:06;;;;;;;17.50;3.70;;;;;;;14.75;51.61;95645.41;5040573;28;20195;-70
2024/03/30 01:19:32;;;;;;;25.83;4.13;;;;;;;14.81;51.56;95639.28;5033481;28;20187;-69
2024/03/30 01:21:58;;;;;;;16.40;3.83;;;;;;;14.77;51.60;95642.56;5034277;28;20208;-70
2024/03/30 01:24:24;;;;;;;26.13;4.43;;;;;;;14.77;51.60;95642.56;5033891;28;20196;-71
2024/03/30 01:26:56;;;;;;;17.10;3.70;;;;;;;14.72;51.86;95637.97;5029556;28;20183;-72
2024/03/30 01:29:25;;;;;;;19.40;4.03;;;;;;;14.72;52.16;95635.31;5031429;28;20194;-71
2024/03/30 01:31:52;;;;;;;28.37;4.60;;;;;;;14.69;51.59;95641.81;5031405;28;20913;-71
2024/03/30 01:34:17;;;;;;;18.93;4.07;;;;;;;14.66;51.93;95630.88;5030924;28;20525;-69
2024/03/30 01:36:43;;;;;;;16.90;4.00;;;;;;;14.72;51.71;95637.97;5027049;28;20458;-70
2024/03/30 01:39:08;;;;;;;28.90;4.47;;;;;;;14.68;51.72;95637.56;5036919;28;20190;-70
2024/03/30 01:41:37;;;;;;;28.30;4.57;;;;;;;14.61;51.91;95636.00;5039135;28;20724;-70
2024/03/30 01:44:04;;;;;;;23.00;4.60;;;;;;;14.46;51.86;95626.59;5030792;28;20546;-71
2024/03/30 01:46:30;;;;;;;25.10;5.60;;;;;;;14.38;51.41;95629.47;5031290;28;20426;-71
2024/03/30 01:48:55;;;;;;;44.17;5.33;;;;;;;14.58;51.09;95639.84;5037767;28;20449;-70
2024/03/30 01:51:21;;;;;;;40.07;4.60;;;;;;;14.68;50.74;95634.91;5041952;28;20777;-71
2024/03/30 01:53:47;;;;;;;33.83;5.07;;;;;;;14.70;50.58;95626.81;5030168;28;20204;-72
2024/03/30 01:56:12;;;;;;;29.33;4.77;;;;;;;14.73;50.55;95635.09;5037178;28;20175;-70
2024/03/30 01:58:38;;;;;;;21.10;4.30;;;;;;;14.72;50.66;95635.31;5029757;28;20198;-71
2024/03/30 02:01:04;;;;;;;28.00;4.57;;;;;;;14.74;50.40;95641.19;5039390;28;20210;-70
2024/03/30 02:03:29;;;;;;;29.73;4.37;;;;;;;14.64;50.52;95628.47;5026703;28;20227;-70
2024/03/30 02:05:56;;;;;;;29.30;5.07;;;;;;;14.69;50.60;95623.34;5030928;28;20180;-71
2024/03/30 02:08:22;;;;;;;29.40;4.53;;;;;;;14.73;49.95;95618.47;5047241;28;20172;-72
2024/03/30 02:10:49;;;;;;;26.87;5.03;;;;;;;14.73;50.21;95621.91;5030163;28;20446;-70
2024/03/30 02:13:14;;;;;;;32.80;5.50;;;;;;;14.74;50.29;95622.72;5029125;28;20521;-70
2024/03/30 02:15:40;;;;;;;32.03;4.67;;;;;;;14.76;50.14;95625.13;5030763;28;20431;-71
2024/03/30 02:18:06;;;;;;;27.97;5.00;;;;;;;14.77;50.28;95621.47;5030965;28;20813;-71
2024/03/30 02:20:31;;;;;;;27.93;4.63;;;;;;;14.70;50.35;95624.19;5039348;28;20206;-71
2024/03/30 02:22:57;;;;;;;30.23;5.03;;;;;;;14.73;50.36;95621.13;5036139;28;20244;-70
2024/03/30 02:25:22;;;;;;;32.37;5.00;;;;;;;14.69;50.52;95625.19;5041617;28;20195;-71
2024/03/30 02:27:49;;;;;;;27.13;4.13;;;;;;;14.67;50.80;95630.69;5037074;28;20283;-71
2024/03/30 02:30:28;;;;;;;33.17;7.27;;;;;;;14.67;50.19;95627.22;5036552;28;20234;-71
2024/03/30 02:32:55;;;;;;;34.13;6.03;;;;;;;14.65;49.70;95623.97;5039111;28;20418;-69
2024/03/30 02:35:20;;;;;;;55.07;5.80;;;;;;;14.66;49.16;95626.41;5033573;28;20973;-71
2024/03/30 02:37:46;;;;;;;41.97;6.10;;;;;;;14.65;50.24;95623.97;5048957;28;20453;-70
2024/03/30 02:40:12;;;;;;;40.67;6.27;;;;;;;14.64;50.23;95617.91;5033326;28;20179;-70
2024/03/30 02:42:37;;;;;;;50.17;6.57;;;;;;;14.56;50.22;95607.63;5034694;28;20188;-71
2024/03/30 02:45:03;;;;;;;43.43;6.27;;;;;;;14.52;50.53;95611.72;5034288;28;20503;-71
2024/03/30 02:47:29;;;;;;;43.63;6.10;;;;;;;14.55;49.60;95614.75;5035570;28;20176;-72
2024/03/30 02:49:54;;;;;;;42.23;6.00;;;;;;;14.46;49.64;95610.78;5049618;28;20175;-69
2024/03/30 02:52:20;;;;;;;54.20;6.60;;;;;;;14.47;49.71;95611.56;5040613;28;20183;-71
2024/03/30 02:54:45;;;;;;;33.83;6.20;;;;;;;14.46;49.84;95604.69;5050665;28;20196;-72
2024/03/30 02:57:11;;;;;;;38.93;5.13;;;;;;;14.42;49.90;95606.94;5032705;28;20583;-71
2024/03/30 02:59:36;;;;;;;53.00;6.47;;;;;;;14.34;48.81;95607.22;5041008;28;20349;-70
2024/03/30 03:02:02;;;;;;;47.60;6.00;;;;;;;14.37;48.56;95609.41;5042038;28;20207;-70
2024/03/30 03:04:27;;;;;;;53.93;6.37;;;;;;;14.42;47.58;95606.94;5033444;28;20231;-69
2024/03/30 03:06:53;;;;;;;40.80;5.53;;;;;;;14.47;48.00;95611.56;5041233;28;20810;-72
2024/03/30 03:09:18;;;;;;;47.57;6.70;;;;;;;14.53;47.42;95611.50;5028252;28;20179;-70
2024/03/30 03:11:43;;;;;;;50.93;6.33;;;;;;;14.58;47.25;95609.03;5042507;28;20180;-72
2024/03/30 03:14:09;;;;;;;33.77;5.77;;;;;;;14.60;47.35;95600.91;5032726;28;20959;-71
2024/03/30 03:16:34;;;;;;;60.67;6.97;;;;;;;14.61;47.33;95612.28;5034724;28;20188;-70
2024/03/30 03:19:00;;;;;;;51.27;6.63;;;;;;;14.59;48.19;95615.09;5052570;28;20186;-70
2024/03/30 03:21:25;;;;;;;51.23;6.57;;;;;;;14.62;48.25;95601.50;5039063;28;20290;-70
2024/03/30 03:23:51;;;;;;;37.43;6.20;;;;;;;14.62;48.57;95600.72;5034492;28;20245;-73
2024/03/30 03:26:17;;;;;;;37.93;6.07;;;;;;;14.62;48.24;95593.59;5044389;28;20207;-70
2024/03/30 03:28:42;;;;;;;45.53;5.87;;;;;;;14.59;47.32;95586.09;5040774;28;20271;-70
2024/03/30 03:31:08;;;;;;;56.00;6.90;;;;;;;14.63;46.30;95578.56;5050603;28;20172;-71
2024/03/30 03:33:33;;;;;;;42.53;5.70;;;;;;;14.58;47.54;95574.78;5040653;28;20195;-70
2024/03/30 03:36:00;;;;;;;34.73;5.30;;;;;;;14.60;47.32;95579.81;5034349;28;20688;-71
2024/03/30 03:38:25;;;;;;;33.60;5.80;;;;;;;14.62;47.64;95571.72;5043599;28;20175;-69
2024/03/30 03:40:53;;;;;;;46.13;6.17;;;;;;;14.63;46.16;95573.28;5036122;28;20458;-72
2024/03/30 03:43:19;;;;;;;41.37;5.60;;;;;;;14.56;47.46;95579.44;5035146;28;20607;-71
2024/03/30 03:45:45;;;;;;;62.40;6.70;;;;;;;14.57;47.27;95581.06;5062452;28;20417;-70
2024/03/30 03:48:11;;;;;;;57.63;7.13;;;;;;;14.51;47.64;95574.00;5039592;28;20547;-71
2024/03/30 03:50:38;;;;;;;52.17;6.67;;;;;;;14.54;47.38;95573.59;5040223;28;20422;-70
2024/03/30 03:53:03;;;;;;;119.30;23.67;;;;;;;14.51;46.47;95579.28;5043381;28;20202;-69
2024/03/30 03:55:29;;;;;;;130.77;27.70;;;;;;;14.56;44.75;95579.44;5035405;28;20434;-70
2024/03/30 03:57:54;;;;;;;85.53;19.10;;;;;;;14.55;45.26;95566.50;5032312;28;20180;-71
2024/03/30 04:00:19;;;;;;;62.37;7.63;;;;;;;14.58;44.74;95569.50;5033131;28;20294;-71
2024/03/30 04:02:45;;;;;;;53.13;6.67;;;;;;;14.54;44.19;95570.16;5033237;28;20183;-72
2024/03/30 04:05:10;;;;;;;45.97;5.20;;;;;;;14.52;43.32;95574.84;5029197;28;20612;-70
2024/03/30 04:07:36;;;;;;;73.37;9.23;;;;;;;14.54;44.14;95580.69;5032677;28;20202;-71
2024/03/30 04:10:01;;;;;;;45.83;6.60;;;;;;;14.59;44.70;95583.47;5032394;28;20227;-70
2024/03/30 04:12:28;;;;;;;48.07;5.53;;;;;;;14.63;44.15;95583.84;5037795;28;20172;-70
2024/03/30 04:14:54;;;;;;;48.87;6.20;;;;;;;14.63;43.09;95573.28;5032774;28;20200;-71
2024/03/30 04:17:19;;;;;;;37.40;4.83;;;;;;;14.61;42.45;95565.63;5036204;28;20468;-71
2024/03/30 04:19:45;;;;;;;44.37;6.40;;;;;;;14.65;41.99;95571.25;5043539;28;20677;-70
2024/03/30 04:22:10;;;;;;;39.80;6.40;;;;;;;14.69;41.98;95577.75;5039375;28;20206;-71
2024/03/30 04:24:36;;;;;;;36.80;5.80;;;;;;;14.69;41.93;95583.00;5031773;28;20207;-72
2024/03/30 04:27:01;;;;;;;64.77;6.37;;;;;;;14.71;42.32;95580.97;5032236;28;20190;-72
2024/03/30 04:29:27;;;;;;;57.17;6.97;;;;;;;14.69;42.43;95581.16;5037041;28;20697;-70
2024/03/30 04:31:52;;;;;;;44.57;5.67;;;;;;;14.63;42.73;95594.38;5041145;28;20210;-72
2024/03/30 04:34:18;;;;;;;60.43;6.80;;;;;;;14.57;42.68;95598.69;5037480;28;20281;-70
2024/03/30 04:36:43;;;;;;;48.67;6.33;;;;;;;14.53;43.34;95593.06;5046578;28;20206;-70
2024/03/30 04:39:09;;;;;;;40.03;5.57;;;;;;;14.51;43.07;95592.47;5052856;28;20340;-71
2024/03/30 04:41:34;;;;;;;39.63;6.23;;;;;;;14.44;43.75;95595.16;5055282;28;20200;-73
2024/03/30 04:43:59;;;;;;;44.27;5.30;;;;;;;14.38;43.08;95598.66;5062549;28;20223;-70
2024/03/30 04:46:25;;;;;;;42.77;5.57;;;;;;;14.33;42.96;95609.03;5071895;28;20175;-71
2024/03/30 04:48:50;;;;;;;47.20;4.93;;;;;;;14.30;42.50;95609.50;5060422;28;20173;-70
2024/03/30 04:51:16;;;;;;;33.03;4.77;;;;;;;14.30;42.36;95617.38;5060066;28;20172;-71
2024/03/30 04:53:41;;;;;;;42.60;5.13;;;;;;;14.28;41.51;95608.88;5052028;28;20210;-72
2024/03/30 04:56:07;;;;;;;31.90;4.13;;;;;;;14.24;42.16;95613.75;5046241;28;20180;-72
2024/03/30 04:58:33;;;;;;;40.03;4.17;;;;;;;14.23;41.42;95609.53;5055582;28;20191;-72
2024/03/30 05:01:06;;;;;;;33.23;4.50;;;;;;;14.22;40.84;95610.56;5041532;28;20289;-69
2024/03/30 05:03:32;;;;;;;36.00;5.77;;;;;;;14.29;40.27;95606.03;5035338;28;20203;-70
2024/03/30 05:05:58;;;;;;;44.23;5.07;;;;;;;14.31;40.64;95603.16;5041623;28;20430;-71
2024/03/30 05:08:23;;;;;;;30.57;4.73;;;;;;;14.34;40.67;95600.09;5031186;28;20423;-71
2024/03/30 05:10:52;;;;;;;30.90;4.63;;;;;;;14.38;40.34;95603.94;5025333;28;20180;-71
2024/03/30 05:13:17;;;;;;;49.63;4.63;;;;;;;14.42;40.21;95596.41;5025390;28;20180;-70
2024/03/30 05:15:43;;;;;;;42.17;4.13;;;;;;;14.47;40.24;95595.75;5041249;28;20552;-71
2024/03/30 05:18:10;;;;;;;35.67;5.73;;;;;;;14.46;40.67;95600.22;5036494;28;20719;-71
2024/03/30 05:20:53;;;;;;;39.90;4.73;;;;;;;14.49;41.06;95610.31;5036482;28;20216;-71
2024/03/30 05:23:25;;;;;;;30.87;4.30;;;;;;;14.48;41.44;95613.19;5029931;28;21189;-69
2024/03/30 05:25:52;;;;;;;37.70;5.50;;;;;;;14.41;42.32;95615.88;5017443;28;20518;-72
2024/03/30 05:28:19;;;;;;;35.90;5.80;;;;;;;14.40;42.57;95601.91;5035132;28;20419;-71
2024/03/30 05:30:47;;;;;;;47.13;5.23;;;;;;;14.39;41.61;95599.47;5031074;28;20498;-70
2024/03/30 05:33:12;;;;;;;32.83;5.17;;;;;;;14.43;42.08;95600.66;5033013;28;20438;-70
2024/03/30 05:35:38;;;;;;;33.90;4.40;;;;;;;14.47;41.89;95588.66;5034516;28;20508;-70
2024/03/30 05:38:04;;;;;;;30.37;5.90;;;;;;;14.43;42.67;95584.84;5039810;28;20605;-71
2024/03/30 05:40:34;;;;;;;34.23;4.20;;;;;;;14.48;42.71;95587.66;5042776;28;20461;-70
2024/03/30 05:43:03;;;;;;;31.10;5.13;;;;;;;14.46;43.13;95594.97;5039188;28;20187;-70
2024/03/30 05:45:32;;;;;;;35.33;5.27;;;;;;;14.38;43.71;95598.66;5031702;28;20472;-72
2024/03/30 05:47:58;;;;;;;29.93;4.50;;;;;;;14.41;43.89;95600.06;5029337;28;20801;-70
2024/03/30 05:50:25;;;;;;;30.07;4.63;;;;;;;14.49;43.84;95599.78;5020484;28;20426;-71
2024/03/30 05:52:51;;;;;;;36.00;4.40;;;;;;;14.55;43.40;95600.75;5045191;28;20246;-72
2024/03/30 05:55:16;;;;;;;38.73;4.10;;;;;;;14.54;43.96;95607.06;5027679;28;20550;-71
2024/03/30 05:57:42;;;;;;;42.43;4.47;;;;;;;14.68;43.76;95599.84;5028709;28;20406;-70
2024/03/30 06:00:11;;;;;;;30.83;4.60;;;;;;;14.78;42.92;95607.28;5038250;28;20250;-70
2024/03/30 06:02:38;;;;;;;40.10;4.77;;;;;;;14.91;42.71;95604.50;5034147;28;20191;-70
2024/03/30 06:05:04;;;;;;;26.33;3.60;;;;;;;14.99;41.93;95600.78;5020756;28;20438;-70
2024/03/30 06:07:30;;;;;;;40.07;4.90;;;;;;;15.12;42.11;95602.44;5036654;28;20425;-72
2024/03/30 06:09:55;;;;;;;40.13;5.60;;;;;;;15.27;42.94;95602.06;5029395;28;20855;-72
2024/03/30 06:12:21;;;;;;;26.30;3.70;;;;;;;15.38;42.57;95605.81;5035471;28;20735;-70
2024/03/30 06:14:47;;;;;;;49.40;5.33;;;;;;;15.45;42.49;95596.78;5021716;28;20578;-70
2024/03/30 06:17:12;;;;;;;29.33;4.90;;;;;;;15.55;43.47;95590.16;5036780;28;20586;-71
2024/03/30 06:19:38;;;;;;;34.57;5.40;;;;;;;15.65;44.09;95595.72;5030903;28;20189;-72
2024/03/30 06:22:04;;;;;;;31.63;3.90;;;;;;;15.71;42.97;95594.00;5033115;28;20207;-72
2024/03/30 06:24:29;;;;;;;20.23;3.20;;;;;;;15.78;41.68;95590.25;5029600;28;20458;-71
2024/03/30 06:26:55;;;;;;;23.57;4.80;;;;;;;15.89;nan;95585.25;5039038;28;20191;-71
2024/03/30 06:29:20;;;;;;;28.90;4.20;;;;;;;15.97;40.37;95580.47;5003265;28;20183;-71
2024/03/30 06:31:46;;;;;;;21.63;4.20;;;;;;;16.08;40.15;95572.78;5029174;28;20279;-71
2024/03/30 06:34:11;;;;;;;35.97;4.20;;;;;;;16.12;38.38;95576.59;5028363;28;20208;-71
2024/03/30 06:36:37;;;;;;;30.43;4.17;;;;;;;16.25;37.59;95567.66;5031130;28;20526;-72
2024/03/30 06:39:02;;;;;;;31.20;4.50;;;;;;;16.35;37.43;95578.47;5038149;28;20279;-69
2024/03/30 06:44:13;;;;;;;34.97;4.67;;;;;;;16.54;36.50;95570.41;5038031;28;20610;-72
2024/03/30 06:46:39;;;;;;;38.43;4.50;;;;;;;16.62;36.77;95562.16;5039063;28;20418;-71
2024/03/30 06:49:05;;;;;;;36.43;4.20;;;;;;;16.70;36.26;95564.44;5030455;28;20180;-71
2024/03/30 06:51:30;;;;;;;34.20;4.40;;;;;;;16.76;35.16;95562.72;5029039;28;20172;-72
2024/03/30 06:53:56;;;;;;;24.00;4.10;;;;;;;16.86;36.48;95562.13;5029038;28;20229;-71
2024/03/30 06:56:22;;;;;;;53.43;4.97;;;;;;;16.90;36.03;95557.97;5035802;28;20241;-71
2024/03/30 06:58:47;;;;;;;30.87;4.57;;;;;;;16.93;35.77;95564.66;5031962;28;20593;-71
2024/03/30 07:01:13;;;;;;;34.70;4.37;;;;;;;16.92;35.42;95550.59;5029869;28;20294;-72
2024/03/30 07:03:39;;;;;;;41.90;4.90;;;;;;;17.00;34.60;95552.94;5029657;28;20211;-72
2024/03/30 07:06:05;;;;;;;40.97;4.40;;;;;;;17.10;34.07;95554.19;5029183;28;20431;-71
2024/03/30 07:08:30;;;;;;;42.00;4.80;;;;;;;17.17;33.92;95554.84;5030709;28;20230;-71
2024/03/30 07:10:56;;;;;;;21.57;4.07;;;;;;;17.19;33.87;95556.22;5025684;28;20176;-70
2024/03/30 07:13:21;;;;;;;28.93;3.80;;;;;;;17.22;33.76;95552.31;5032860;28;20268;-71
2024/03/30 07:15:48;;;;;;;29.13;3.90;;;;;;;17.26;34.00;95547.34;5031846;28;20191;-70
2024/03/30 07:18:13;;;;;;;26.47;3.67;;;;;;;17.31;33.49;95542.16;5040653;28;20179;-71
2024/03/30 07:20:38;;;;;;;34.67;4.17;;;;;;;17.34;33.40;95542.47;5032847;28;20460;-71
2024/03/30 07:23:04;;;;;;;24.80;5.30;;;;;;;17.40;33.50;95545.22;5037811;28;20235;-69
2024/03/30 07:25:30;;;;;;;27.27;3.90;;;;;;;17.42;33.42;95548.44;5032496;28;20672;-69
2024/03/30 07:27:55;;;;;;;30.63;3.97;;;;;;;17.47;33.52;95548.53;5038306;28;20229;-72
2024/03/30 07:30:21;;;;;;;33.00;4.03;;;;;;;17.49;33.77;95544.59;5046063;28;20561;-70
2024/03/30 07:32:46;;;;;;;38.30;4.93;;;;;;;17.52;34.03;95545.97;5045498;28;20184;-70
2024/03/30 07:35:12;;;;;;;30.47;5.43;;;;;;;17.52;34.00;95547.81;5032772;28;20860;-70
2024/03/30 07:37:37;;;;;;;25.60;3.50;;;;;;;17.53;33.93;95550.22;5033690;28;20536;-70
2024/03/30 07:40:03;;;;;;;43.37;4.40;;;;;;;17.56;33.89;95548.97;5033124;28;20188;-70
2024/03/30 07:42:29;;;;;;;29.87;3.87;;;;;;;17.58;33.86;95552.19;5037731;28;20204;-70
2024/03/30 07:44:54;;;;;;;44.53;4.17;;;;;;;17.57;34.19;95545.28;5031917;28;20211;-70
2024/03/30 07:47:20;;;;;;;56.60;4.20;;;;;;;17.56;33.18;95546.31;5033307;28;20574;-69
2024/03/30 07:49:46;;;;;;;37.50;5.00;;;;;;;17.57;33.99;95546.06;5034417;28;20230;-71
2024/03/30 07:52:11;;;;;;;34.20;4.07;;;;;;;17.56;33.95;95544.47;5026811;28;20680;-69
2024/03/30 07:54:37;;;;;;;44.27;5.00;;;;;;;17.58;33.74;95552.97;5043723;28;20690;-69
2024/03/30 07:57:03;;;;;;;38.10;4.87;;;;;;;17.59;33.42;95548.47;5031216;28;20179;-71
2024/03/30 07:59:28;;;;;;;47.93;5.43;;;;;;;17.60;33.25;95545.59;5028995;28;20179;-70
2024/03/30 08:01:54;;;;;;;26.57;4.10;;;;;;;17.63;33.35;95539.03;5041855;28;20214;-71
2024/03/30 08:04:21;;;;;;;48.50;6.20;;;;;;;17.63;33.98;95542.50;5041886;28;20210;-71
2024/03/30 08:06:48;;;;;;;34.53;4.90;;;;;;;17.61;34.33;95536.63;5033446;28;20199;-70
2024/03/30 08:09:17;;;;;;;35.07;5.33;;;;;;;17.61;34.02;95541.09;5053506;28;20849;-70
2024/03/30 08:11:44;;;;;;;43.13;6.50;;;;;;;17.63;33.90;95544.31;5048203;28;20430;-70
2024/03/30 08:14:10;;;;;;;51.37;6.43;;;;;;;17.64;34.53;95546.72;5043249;28;20446;-71
2024/03/30 08:16:36;;;;;;;58.53;5.30;;;;;;;17.63;34.08;95550.44;5042389;28;20509;-71
2024/03/30 08:19:03;;;;;;;55.17;5.87;;;;;;;17.61;33.50;95549.88;5046748;28;20436;-72
2024/03/30 08:21:30;;;;;;;49.97;5.37;;;;;;;17.63;33.04;95545.13;5037068;28;20199;-71
2024/03/30 08:23:55;;;;;;;29.27;5.23;;;;;;;17.69;32.89;95553.16;5043017;28;20442;-71
2024/03/30 08:26:21;;;;;;;52.90;6.37;;;;;;;17.73;33.08;95559.59;5033255;28;20834;-70
2024/03/30 08:28:47;;;;;;;38.20;5.50;;;;;;;17.76;33.01;95556.47;5042409;28;20183;-72
2024/03/30 08:31:13;;;;;;;34.90;5.90;;;;;;;17.78;33.12;95560.50;5017552;28;20198;-70
2024/03/30 08:33:38;;;;;;;48.73;6.57;;;;;;;17.79;33.84;95554.16;5031120;28;20211;-70
2024/03/30 08:36:04;;;;;;;44.10;5.10;;;;;;;17.79;34.46;95553.34;5032176;28;21041;-70
2024/03/30 08:38:29;;;;;;;34.30;4.80;;;;;;;17.77;34.74;95553.59;5031668;28;20245;-70
2024/03/30 08:40:55;;;;;;;39.87;4.90;;;;;;;17.78;34.75;95557.03;5032055;28;20238;-71
2024/03/30 08:43:25;;;;;;;35.57;4.83;;;;;;;17.77;34.96;95556.22;5031949;28;20256;-70
2024/03/30 08:45:50;;;;;;;46.90;5.90;;;;;;;17.77;34.94;95555.41;5033730;28;20203;-70
2024/03/30 08:48:17;;;;;;;46.07;6.13;;;;;;;17.74;35.19;95554.06;5033944;28;20461;-71
2024/03/30 08:50:43;;;;;;;49.40;5.37;;;;;;;17.73;35.31;95549.00;5032985;28;20187;-71
2024/03/30 08:53:09;;;;;;;36.97;5.40;;;;;;;17.68;36.83;95548.91;5031673;28;20438;-71
2024/03/30 08:55:38;;;;;;;50.97;6.37;;;;;;;17.58;38.61;95537.09;5032481;28;20664;-71
2024/03/30 08:58:04;;;;;;;61.17;6.50;;;;;;;17.51;39.23;95531.16;5041740;28;20183;-71
2024/03/30 09:00:30;;;;;;;52.47;5.37;;;;;;;17.50;39.18;95535.63;5034346;28;20418;-70
2024/03/30 09:02:55;;;;;;;32.07;4.80;;;;;;;17.49;38.91;95539.31;5037047;28;20445;-71
2024/03/30 09:05:22;;;;;;;29.73;5.27;;;;;;;17.49;38.51;95543.81;5030585;28;20439;-70
2024/03/30 09:07:47;;;;;;;35.80;5.10;;;;;;;17.51;38.21;95544.38;5031457;28;20203;-70
2024/03/30 09:10:13;;;;;;;43.47;4.90;;;;;;;17.52;37.41;95548.63;5033849;28;20454;-71
2024/03/30 09:12:38;;;;;;;41.17;5.73;;;;;;;17.53;38.21;95544.94;5038165;28;20203;-71
2024/03/30 09:15:04;;;;;;;62.23;6.50;;;;;;;17.53;38.49;95547.56;5030751;28;20219;-70
2024/03/30 09:17:30;;;;;;;45.97;6.33;;;;;;;17.50;39.96;95553.38;5032020;28;20184;-69
2024/03/30 09:19:56;;;;;;;50.27;6.93;;;;;;;17.45;40.33;95559.34;5031430;28;20179;-71
2024/03/30 09:22:23;;;;;;;33.13;5.73;;;;;;;17.48;40.28;95564.19;5035664;28;20571;-71
2024/03/30 09:24:50;;;;;;;47.50;5.80;;;;;;;17.49;40.24;95571.09;5031602;28;20449;-70
2024/03/30 09:27:16;;;;;;;48.20;6.43;;;;;;;17.49;40.68;95576.38;5030621;28;20995;-70
2024/03/30 09:29:42;;;;;;;53.07;7.53;;;;;;;17.52;40.67;95574.31;5028826;28;20426;-70
2024/03/30 09:32:07;;;;;;;50.77;6.70;;;;;;;17.53;40.88;95570.63;5033023;28;20321;-70
2024/03/30 09:34:32;;;;;;;47.80;7.97;;;;;;;17.53;40.92;95571.41;5032245;28;20242;-70
2024/03/30 09:36:58;;;;;;;52.07;6.87;;;;;;;17.54;40.75;95578.31;5032832;28;20599;-71
2024/03/30 09:39:23;;;;;;;59.97;6.73;;;;;;;17.54;40.08;95575.66;5041879;28;20206;-71
2024/03/30 09:41:53;;;;;;;49.33;6.40;;;;;;;17.54;39.70;95574.88;5035129;28;20208;-72
2024/03/30 09:44:19;;;;;;;53.57;6.43;;;;;;;17.55;40.03;95569.34;5031459;28;20253;-70
2024/03/30 09:46:45;;;;;;;44.47;7.00;;;;;;;17.54;41.10;95566.94;5036568;28;20438;-71
2024/03/30 09:49:13;;;;;;;49.77;6.43;;;;;;;17.56;41.28;95565.66;5030972;28;20209;-71
2024/03/30 09:51:38;;;;;;;51.53;6.63;;;;;;;17.56;41.33;95563.00;5038382;28;20191;-71
2024/03/30 09:54:04;;;;;;;47.17;6.20;;;;;;;17.56;41.62;95562.22;5026399;28;20444;-72
2024/03/30 09:56:30;;;;;;;45.00;7.17;;;;;;;17.56;41.62;95549.75;5037432;28;20209;-70
2024/03/30 09:58:58;;;;;;;51.53;7.73;;;;;;;17.55;41.83;95545.50;5029733;28;20180;-72
2024/03/30 10:01:24;;;;;;;34.40;6.20;;;;;;;17.56;41.96;95546.31;5022111;28;20462;-70
2024/03/30 10:03:49;;;;;;;44.07;6.00;;;;;;;17.55;41.95;95556.09;5039367;28;20524;-70
2024/03/30 10:06:27;;;;;;;49.37;6.60;;;;;;;17.56;41.77;95559.56;5038029;28;20192;-70
2024/03/30 10:08:58;;;;;;;52.27;7.47;;;;;;;17.56;41.13;95563.00;5029086;28;20669;-70
2024/03/30 10:11:24;;;;;;;41.17;5.80;;;;;;;17.58;41.13;95562.78;5028834;28;20429;-71
2024/03/30 10:14:01;;;;;;;52.30;6.73;;;;;;;17.59;40.87;95553.78;5032009;28;20446;-72
2024/03/30 10:16:27;;;;;;;40.40;6.57;;;;;;;17.62;41.02;95559.41;5037811;28;20804;-71
2024/03/30 10:18:52;;;;;;;48.13;7.27;;;;;;;17.63;41.08;95550.44;5031739;28;20454;-70
2024/03/30 10:21:18;;;;;;;51.53;7.47;;;;;;;17.65;41.47;95548.31;5034652;28;20280;-71
2024/03/30 10:23:44;;;;;;;47.40;8.17;;;;;;;17.70;41.35;95555.59;5034396;28;20287;-71
2024/03/30 10:26:17;;;;;;;51.20;11.10;;;;;;;17.72;40.51;95548.19;5037913;28;20491;-71
2024/03/30 10:28:43;;;;;;;63.30;12.27;;;;;;;17.76;39.62;95536.06;5034050;28;20464;-71
2024/03/30 10:31:09;;;;;;;47.90;9.83;;;;;;;17.80;40.35;95537.22;5036570;28;20471;-70
2024/03/30 10:33:35;;;;;;;46.30;9.00;;;;;;;17.83;41.18;95549.19;5038041;28;20865;-70
2024/03/30 10:36:01;;;;;;;61.10;9.97;;;;;;;17.86;39.58;95554.00;5020458;28;20187;-71
2024/03/30 10:38:27;;;;;;;48.10;8.87;;;;;;;17.92;38.54;95544.28;5041334;28;20306;-70
2024/03/30 10:40:54;;;;;;;61.90;8.00;;;;;;;17.93;38.09;95544.03;5042961;28;20523;-70
2024/03/30 10:43:20;;;;;;;38.20;7.13;;;;;;;17.98;37.96;95545.22;5036838;28;20460;-71
2024/03/30 10:45:46;;;;;;;50.77;7.23;;;;;;;18.01;37.72;95536.78;5038552;28;21017;-71
2024/03/30 10:48:11;;;;;;;71.23;8.80;;;;;;;18.05;37.63;95540.53;5034398;28;20180;-71
2024/03/30 10:50:37;;;;;;;56.53;9.50;;;;;;;18.09;37.77;95539.03;5046205;28;20522;-70
2024/03/30 10:53:06;;;;;;;61.57;8.87;;;;;;;18.11;38.30;95537.75;5042544;28;20214;-71
2024/03/30 10:55:36;;;;;;;42.90;10.10;;;;;;;18.15;38.12;95535.41;5033411;28;20203;-70
2024/03/30 10:58:01;;;;;;;56.17;12.07;;;;;;;18.19;38.03;95525.94;5035461;28;20509;-71
2024/03/30 11:00:28;;;;;;;71.20;10.60;;;;;;;18.23;38.19;95531.53;5033526;28;21158;-70
2024/03/30 11:02:54;;;;;;;83.53;13.63;;;;;;;18.26;38.26;95525.75;5036195;28;20183;-70
2024/03/30 11:05:19;;;;;;;52.63;11.20;;;;;;;18.31;38.13;95522.38;5036301;28;20461;-71
2024/03/30 11:07:46;;;;;;;43.97;11.03;;;;;;;18.34;38.12;95527.22;5040273;28;20187;-71
2024/03/30 11:10:12;;;;;;;69.17;12.17;;;;;;;18.35;36.95;95528.81;5030327;28;20191;-70
2024/03/30 11:12:40;;;;;;;48.80;9.67;;;;;;;18.40;35.86;95521.75;5038502;28;20499;-69
2024/03/30 11:15:06;;;;;;;39.97;9.43;;;;;;;18.47;35.94;95518.91;5038830;28;20273;-69
2024/03/30 11:17:38;;;;;;;60.50;11.77;;;;;;;18.54;36.79;95527.50;5044956;28;20441;-70
2024/03/30 11:20:14;;;;;;;36.37;9.20;;;;;;;18.60;37.09;95528.38;5027573;28;20191;-71
2024/03/30 11:23:06;;;;;;;50.07;10.03;;;;;;;18.67;37.72;95522.91;5044035;28;20461;-70